sensor_id;sensor_type;location;lat;lon;timestamp;P1;durP1;ratioP1;P2;durP2;ratioP2
32864;SDS011;19219;44.500;11.188;2023-03-01T00:01:03;41.42;;;20.25;;
32864;SDS011;19219;44.500;11.188;2023-03-01T00:05:55;41.35;;;19.50;;
32864;SDS011;19219;44.500;11.188;2023-03-01T00:08:21;34.90;;;18.80;;
32864;SDS011;19219;44.500;11.188;2023-03-01T00:10:46;37.60;;;19.80;;
32864;SDS011;19219;44.500;11.188;2023-03-01T00:13:12;38.17;;;20.45;;
32864;SDS011;19219;44.500;11.188;2023-03-01T00:15:38;38.95;;;20.25;;
32864;SDS011;19219;44.500;11.188;2023-03-01T00:18:05;32.83;;;19.23;;
32864;SDS011;19219;44.500;11.188;2023-03-01T00:20:31;31.27;;;18.50;;
32864;SDS011;19219;44.500;11.188;2023-03-01T00:22:57;36.20;;;19.95;;
32864;SDS011;19219;44.500;11.188;2023-03-01T00:25:22;40.70;;;20.33;;
32864;SDS011;19219;44.500;11.188;2023-03-01T00:27:48;37.65;;;19.30;;
32864;SDS011;19219;44.500;11.188;2023-03-01T00:30:14;39.60;;;20.55;;
32864;SDS011;19219;44.500;11.188;2023-03-01T00:32:40;45.15;;;21.42;;
32864;SDS011;19219;44.500;11.188;2023-03-01T00:35:06;43.25;;;20.35;;
32864;SDS011;19219;44.500;11.188;2023-03-01T00:37:31;40.53;;;19.92;;
32864;SDS011;19219;44.500;11.188;2023-03-01T00:39:57;40.67;;;19.20;;
32864;SDS011;19219;44.500;11.188;2023-03-01T00:42:23;40.03;;;20.05;;
32864;SDS011;19219;44.500;11.188;2023-03-01T00:44:48;37.15;;;18.02;;
32864;SDS011;19219;44.500;11.188;2023-03-01T00:47:14;35.40;;;19.60;;
32864;SDS011;19219;44.500;11.188;2023-03-01T00:49:40;36.33;;;18.73;;
32864;SDS011;19219;44.500;11.188;2023-03-01T00:52:05;40.10;;;19.50;;
32864;SDS011;19219;44.500;11.188;2023-03-01T00:54:31;37.30;;;19.80;;
32864;SDS011;19219;44.500;11.188;2023-03-01T00:56:57;37.92;;;19.75;;
32864;SDS011;19219;44.500;11.188;2023-03-01T00:59:22;35.33;;;20.00;;
32864;SDS011;19219;44.500;11.188;2023-03-01T01:01:48;36.55;;;20.30;;
32864;SDS011;19219;44.500;11.188;2023-03-01T01:04:14;43.05;;;19.23;;
32864;SDS011;19219;44.500;11.188;2023-03-01T01:06:44;29.08;;;16.95;;
32864;SDS011;19219;44.500;11.188;2023-03-01T01:09:12;41.05;;;20.88;;
32864;SDS011;19219;44.500;11.188;2023-03-01T01:11:42;37.90;;;19.10;;
32864;SDS011;19219;44.500;11.188;2023-03-01T01:14:13;34.30;;;17.75;;
32864;SDS011;19219;44.500;11.188;2023-03-01T01:16:38;42.92;;;20.38;;
32864;SDS011;19219;44.500;11.188;2023-03-01T01:19:04;34.08;;;18.48;;
32864;SDS011;19219;44.500;11.188;2023-03-01T01:21:30;37.28;;;19.67;;
32864;SDS011;19219;44.500;11.188;2023-03-01T01:23:56;37.22;;;20.25;;
32864;SDS011;19219;44.500;11.188;2023-03-01T01:26:24;39.85;;;20.98;;
32864;SDS011;19219;44.500;11.188;2023-03-01T01:28:51;43.28;;;20.77;;
32864;SDS011;19219;44.500;11.188;2023-03-01T01:31:19;33.13;;;18.23;;
32864;SDS011;19219;44.500;11.188;2023-03-01T01:33:45;36.67;;;18.58;;
32864;SDS011;19219;44.500;11.188;2023-03-01T01:36:11;34.33;;;19.13;;
32864;SDS011;19219;44.500;11.188;2023-03-01T01:38:37;39.20;;;19.63;;
32864;SDS011;19219;44.500;11.188;2023-03-01T01:41:04;36.67;;;19.48;;
32864;SDS011;19219;44.500;11.188;2023-03-01T01:43:39;38.85;;;18.83;;
32864;SDS011;19219;44.500;11.188;2023-03-01T01:46:25;137.27;;;56.60;;
32864;SDS011;19219;44.500;11.188;2023-03-01T01:49:38;42.60;;;21.40;;
32864;SDS011;19219;44.500;11.188;2023-03-01T01:51:47;34.80;;;18.83;;
32864;SDS011;19219;44.500;11.188;2023-03-01T01:54:22;38.95;;;19.38;;
32864;SDS011;19219;44.500;11.188;2023-03-01T01:57:14;36.45;;;18.58;;
32864;SDS011;19219;44.500;11.188;2023-03-01T01:59:43;36.50;;;19.25;;
32864;SDS011;19219;44.500;11.188;2023-03-01T02:02:13;36.85;;;17.92;;
32864;SDS011;19219;44.500;11.188;2023-03-01T02:04:39;33.03;;;18.38;;
32864;SDS011;19219;44.500;11.188;2023-03-01T02:09:40;36.17;;;19.60;;
32864;SDS011;19219;44.500;11.188;2023-03-01T02:12:10;41.38;;;20.60;;
32864;SDS011;19219;44.500;11.188;2023-03-01T02:14:36;37.47;;;18.67;;
32864;SDS011;19219;44.500;11.188;2023-03-01T02:17:02;35.28;;;18.10;;
32864;SDS011;19219;44.500;11.188;2023-03-01T02:19:34;38.30;;;18.35;;
32864;SDS011;19219;44.500;11.188;2023-03-01T02:24:52;39.22;;;18.25;;
32864;SDS011;19219;44.500;11.188;2023-03-01T02:27:22;39.08;;;19.20;;
32864;SDS011;19219;44.500;11.188;2023-03-01T02:29:55;35.47;;;18.23;;
32864;SDS011;19219;44.500;11.188;2023-03-01T02:32:20;38.20;;;19.20;;
32864;SDS011;19219;44.500;11.188;2023-03-01T02:34:53;33.88;;;18.75;;
32864;SDS011;19219;44.500;11.188;2023-03-01T02:37:20;41.00;;;19.40;;
32864;SDS011;19219;44.500;11.188;2023-03-01T02:39:51;34.10;;;19.17;;
32864;SDS011;19219;44.500;11.188;2023-03-01T02:42:25;35.85;;;17.73;;
32864;SDS011;19219;44.500;11.188;2023-03-01T02:44:55;32.63;;;17.20;;
32864;SDS011;19219;44.500;11.188;2023-03-01T02:47:21;35.85;;;17.70;;
32864;SDS011;19219;44.500;11.188;2023-03-01T02:49:47;39.45;;;19.38;;
32864;SDS011;19219;44.500;11.188;2023-03-01T02:55:06;34.47;;;17.92;;
32864;SDS011;19219;44.500;11.188;2023-03-01T02:57:39;37.35;;;19.67;;
32864;SDS011;19219;44.500;11.188;2023-03-01T03:00:08;39.40;;;18.38;;
32864;SDS011;19219;44.500;11.188;2023-03-01T03:02:44;35.40;;;18.10;;
32864;SDS011;19219;44.500;11.188;2023-03-01T03:05:15;36.10;;;18.80;;
32864;SDS011;19219;44.500;11.188;2023-03-01T03:07:44;41.90;;;18.48;;
32864;SDS011;19219;44.500;11.188;2023-03-01T03:10:16;29.58;;;16.98;;
32864;SDS011;19219;44.500;11.188;2023-03-01T03:12:50;28.80;;;19.15;;
32864;SDS011;19219;44.500;11.188;2023-03-01T03:15:17;31.92;;;18.50;;
32864;SDS011;19219;44.500;11.188;2023-03-01T03:17:45;28.80;;;16.27;;
32864;SDS011;19219;44.500;11.188;2023-03-01T03:20:12;37.05;;;18.50;;
32864;SDS011;19219;44.500;11.188;2023-03-01T03:22:44;31.50;;;16.95;;
32864;SDS011;19219;44.500;11.188;2023-03-01T03:25:11;31.35;;;17.88;;
32864;SDS011;19219;44.500;11.188;2023-03-01T03:27:37;37.90;;;19.67;;
32864;SDS011;19219;44.500;11.188;2023-03-01T03:30:05;33.85;;;18.27;;
32864;SDS011;19219;44.500;11.188;2023-03-01T03:32:40;37.08;;;18.75;;
32864;SDS011;19219;44.500;11.188;2023-03-01T03:35:08;37.38;;;19.90;;
32864;SDS011;19219;44.500;11.188;2023-03-01T03:37:38;37.15;;;19.10;;
32864;SDS011;19219;44.500;11.188;2023-03-01T03:40:23;32.55;;;17.50;;
32864;SDS011;19219;44.500;11.188;2023-03-01T03:42:49;34.97;;;18.35;;
32864;SDS011;19219;44.500;11.188;2023-03-01T03:45:16;37.10;;;20.00;;
32864;SDS011;19219;44.500;11.188;2023-03-01T03:47:42;37.08;;;20.75;;
32864;SDS011;19219;44.500;11.188;2023-03-01T03:50:09;33.50;;;18.65;;
32864;SDS011;19219;44.500;11.188;2023-03-01T03:52:38;35.13;;;18.90;;
32864;SDS011;19219;44.500;11.188;2023-03-01T03:55:05;38.28;;;19.65;;
32864;SDS011;19219;44.500;11.188;2023-03-01T03:57:38;30.33;;;18.30;;
32864;SDS011;19219;44.500;11.188;2023-03-01T04:00:09;31.50;;;18.08;;
32864;SDS011;19219;44.500;11.188;2023-03-01T04:02:39;37.78;;;17.92;;
32864;SDS011;19219;44.500;11.188;2023-03-01T04:05:06;39.90;;;19.88;;
32864;SDS011;19219;44.500;11.188;2023-03-01T04:07:34;44.03;;;19.58;;
32864;SDS011;19219;44.500;11.188;2023-03-01T04:10:00;36.13;;;19.25;;
32864;SDS011;19219;44.500;11.188;2023-03-01T04:12:26;36.17;;;17.58;;
32864;SDS011;19219;44.500;11.188;2023-03-01T04:14:52;33.65;;;18.40;;
32864;SDS011;19219;44.500;11.188;2023-03-01T04:17:18;32.03;;;18.25;;
32864;SDS011;19219;44.500;11.188;2023-03-01T04:19:44;35.67;;;18.02;;
32864;SDS011;19219;44.500;11.188;2023-03-01T04:22:13;29.90;;;17.10;;
32864;SDS011;19219;44.500;11.188;2023-03-01T04:24:43;32.70;;;18.97;;
32864;SDS011;19219;44.500;11.188;2023-03-01T04:27:10;34.47;;;17.00;;
32864;SDS011;19219;44.500;11.188;2023-03-01T04:29:36;33.97;;;20.08;;
32864;SDS011;19219;44.500;11.188;2023-03-01T04:32:02;30.38;;;17.27;;
32864;SDS011;19219;44.500;11.188;2023-03-01T04:34:28;33.25;;;18.05;;
32864;SDS011;19219;44.500;11.188;2023-03-01T04:36:54;35.35;;;19.13;;
32864;SDS011;19219;44.500;11.188;2023-03-01T04:39:20;42.53;;;20.58;;
32864;SDS011;19219;44.500;11.188;2023-03-01T04:41:46;34.75;;;18.45;;
32864;SDS011;19219;44.500;11.188;2023-03-01T04:44:12;36.92;;;17.88;;
32864;SDS011;19219;44.500;11.188;2023-03-01T04:46:38;35.50;;;19.02;;
32864;SDS011;19219;44.500;11.188;2023-03-01T04:49:04;35.75;;;19.95;;
32864;SDS011;19219;44.500;11.188;2023-03-01T04:51:30;33.95;;;19.02;;
32864;SDS011;19219;44.500;11.188;2023-03-01T04:53:57;33.45;;;18.70;;
32864;SDS011;19219;44.500;11.188;2023-03-01T04:56:23;36.08;;;19.95;;
32864;SDS011;19219;44.500;11.188;2023-03-01T04:58:49;36.95;;;20.02;;
32864;SDS011;19219;44.500;11.188;2023-03-01T05:01:18;40.75;;;20.63;;
32864;SDS011;19219;44.500;11.188;2023-03-01T05:03:49;39.00;;;19.75;;
32864;SDS011;19219;44.500;11.188;2023-03-01T05:06:16;33.33;;;19.23;;
32864;SDS011;19219;44.500;11.188;2023-03-01T05:08:43;38.08;;;20.02;;
32864;SDS011;19219;44.500;11.188;2023-03-01T05:11:09;42.72;;;20.92;;
32864;SDS011;19219;44.500;11.188;2023-03-01T05:13:36;40.95;;;19.88;;
32864;SDS011;19219;44.500;11.188;2023-03-01T05:16:03;39.10;;;20.63;;
32864;SDS011;19219;44.500;11.188;2023-03-01T05:18:31;41.88;;;20.98;;
32864;SDS011;19219;44.500;11.188;2023-03-01T05:21:05;35.92;;;19.13;;
32864;SDS011;19219;44.500;11.188;2023-03-01T05:23:34;45.90;;;21.48;;
32864;SDS011;19219;44.500;11.188;2023-03-01T05:26:00;42.20;;;20.70;;
32864;SDS011;19219;44.500;11.188;2023-03-01T05:28:29;42.25;;;22.33;;
32864;SDS011;19219;44.500;11.188;2023-03-01T05:30:55;40.50;;;20.85;;
32864;SDS011;19219;44.500;11.188;2023-03-01T05:33:22;48.63;;;22.63;;
32864;SDS011;19219;44.500;11.188;2023-03-01T05:35:49;43.55;;;20.20;;
32864;SDS011;19219;44.500;11.188;2023-03-01T05:38:20;41.25;;;20.35;;
32864;SDS011;19219;44.500;11.188;2023-03-01T05:40:46;43.88;;;21.83;;
32864;SDS011;19219;44.500;11.188;2023-03-01T05:43:14;40.03;;;22.67;;
32864;SDS011;19219;44.500;11.188;2023-03-01T05:45:41;42.45;;;22.15;;
32864;SDS011;19219;44.500;11.188;2023-03-01T05:48:08;42.28;;;22.00;;
32864;SDS011;19219;44.500;11.188;2023-03-01T05:50:35;45.03;;;22.10;;
32864;SDS011;19219;44.500;11.188;2023-03-01T05:53:05;45.67;;;22.92;;
32864;SDS011;19219;44.500;11.188;2023-03-01T05:55:33;41.75;;;22.92;;
32864;SDS011;19219;44.500;11.188;2023-03-01T05:58:00;50.97;;;25.40;;
32864;SDS011;19219;44.500;11.188;2023-03-01T06:00:27;51.50;;;25.50;;
32864;SDS011;19219;44.500;11.188;2023-03-01T06:02:54;51.45;;;24.25;;
32864;SDS011;19219;44.500;11.188;2023-03-01T06:05:21;47.10;;;25.23;;
32864;SDS011;19219;44.500;11.188;2023-03-01T06:07:47;46.13;;;24.00;;
32864;SDS011;19219;44.500;11.188;2023-03-01T06:10:13;53.97;;;25.17;;
32864;SDS011;19219;44.500;11.188;2023-03-01T06:12:40;50.60;;;24.67;;
32864;SDS011;19219;44.500;11.188;2023-03-01T06:15:07;52.10;;;26.25;;
32864;SDS011;19219;44.500;11.188;2023-03-01T06:17:37;50.05;;;26.48;;
32864;SDS011;19219;44.500;11.188;2023-03-01T06:20:06;44.38;;;21.30;;
32864;SDS011;19219;44.500;11.188;2023-03-01T06:22:36;44.40;;;22.35;;
32864;SDS011;19219;44.500;11.188;2023-03-01T06:25:02;47.40;;;25.73;;
32864;SDS011;19219;44.500;11.188;2023-03-01T06:27:29;41.72;;;22.33;;
32864;SDS011;19219;44.500;11.188;2023-03-01T06:29:54;40.35;;;20.58;;
32864;SDS011;19219;44.500;11.188;2023-03-01T06:32:20;40.78;;;20.77;;
32864;SDS011;19219;44.500;11.188;2023-03-01T06:34:46;48.67;;;23.80;;
32864;SDS011;19219;44.500;11.188;2023-03-01T06:37:11;41.30;;;21.35;;
32864;SDS011;19219;44.500;11.188;2023-03-01T06:39:37;38.05;;;20.38;;
32864;SDS011;19219;44.500;11.188;2023-03-01T06:42:03;39.38;;;21.23;;
32864;SDS011;19219;44.500;11.188;2023-03-01T06:44:29;43.95;;;20.85;;
32864;SDS011;19219;44.500;11.188;2023-03-01T06:46:55;43.80;;;22.75;;
32864;SDS011;19219;44.500;11.188;2023-03-01T06:49:20;38.58;;;20.08;;
32864;SDS011;19219;44.500;11.188;2023-03-01T06:51:46;41.03;;;21.40;;
32864;SDS011;19219;44.500;11.188;2023-03-01T06:54:12;45.42;;;24.05;;
32864;SDS011;19219;44.500;11.188;2023-03-01T06:56:38;44.25;;;23.05;;
32864;SDS011;19219;44.500;11.188;2023-03-01T06:59:04;40.70;;;20.80;;
32864;SDS011;19219;44.500;11.188;2023-03-01T07:01:30;50.72;;;24.02;;
32864;SDS011;19219;44.500;11.188;2023-03-01T07:03:56;47.58;;;23.52;;
32864;SDS011;19219;44.500;11.188;2023-03-01T07:06:22;43.83;;;22.25;;
32864;SDS011;19219;44.500;11.188;2023-03-01T07:08:48;44.00;;;23.02;;
32864;SDS011;19219;44.500;11.188;2023-03-01T07:11:14;46.75;;;23.58;;
32864;SDS011;19219;44.500;11.188;2023-03-01T07:13:40;47.85;;;24.40;;
32864;SDS011;19219;44.500;11.188;2023-03-01T07:16:06;46.33;;;25.40;;
32864;SDS011;19219;44.500;11.188;2023-03-01T07:18:33;56.28;;;25.25;;
32864;SDS011;19219;44.500;11.188;2023-03-01T07:21:03;51.72;;;25.98;;
32864;SDS011;19219;44.500;11.188;2023-03-01T07:23:29;54.33;;;27.23;;
32864;SDS011;19219;44.500;11.188;2023-03-01T07:25:55;60.70;;;29.90;;
32864;SDS011;19219;44.500;11.188;2023-03-01T07:28:24;64.32;;;32.15;;
32864;SDS011;19219;44.500;11.188;2023-03-01T07:30:50;67.18;;;33.85;;
32864;SDS011;19219;44.500;11.188;2023-03-01T07:33:16;72.82;;;35.00;;
32864;SDS011;19219;44.500;11.188;2023-03-01T07:35:42;73.28;;;36.30;;
32864;SDS011;19219;44.500;11.188;2023-03-01T07:38:07;72.07;;;36.90;;
32864;SDS011;19219;44.500;11.188;2023-03-01T07:40:33;78.57;;;36.28;;
32864;SDS011;19219;44.500;11.188;2023-03-01T07:42:59;71.95;;;34.38;;
32864;SDS011;19219;44.500;11.188;2023-03-01T07:45:26;73.72;;;33.70;;
32864;SDS011;19219;44.500;11.188;2023-03-01T07:47:52;79.03;;;37.17;;
32864;SDS011;19219;44.500;11.188;2023-03-01T07:50:19;76.47;;;37.10;;
32864;SDS011;19219;44.500;11.188;2023-03-01T07:52:46;74.18;;;34.40;;
32864;SDS011;19219;44.500;11.188;2023-03-01T07:55:12;59.65;;;31.80;;
32864;SDS011;19219;44.500;11.188;2023-03-01T07:57:38;68.78;;;32.75;;
32864;SDS011;19219;44.500;11.188;2023-03-01T08:00:04;61.17;;;31.25;;
32864;SDS011;19219;44.500;11.188;2023-03-01T08:02:30;74.18;;;32.88;;
32864;SDS011;19219;44.500;11.188;2023-03-01T08:04:56;70.85;;;33.25;;
32864;SDS011;19219;44.500;11.188;2023-03-01T08:07:22;68.18;;;34.22;;
32864;SDS011;19219;44.500;11.188;2023-03-01T08:09:48;71.10;;;32.35;;
32864;SDS011;19219;44.500;11.188;2023-03-01T08:12:14;76.13;;;35.95;;
32864;SDS011;19219;44.500;11.188;2023-03-01T08:14:41;67.03;;;33.75;;
32864;SDS011;19219;44.500;11.188;2023-03-01T08:17:07;70.78;;;35.05;;
32864;SDS011;19219;44.500;11.188;2023-03-01T08:19:33;70.28;;;33.95;;
32864;SDS011;19219;44.500;11.188;2023-03-01T08:21:59;68.18;;;32.38;;
32864;SDS011;19219;44.500;11.188;2023-03-01T08:24:26;61.90;;;31.30;;
32864;SDS011;19219;44.500;11.188;2023-03-01T08:26:52;64.60;;;31.25;;
32864;SDS011;19219;44.500;11.188;2023-03-01T08:29:19;70.95;;;33.92;;
32864;SDS011;19219;44.500;11.188;2023-03-01T08:31:44;69.75;;;33.90;;
32864;SDS011;19219;44.500;11.188;2023-03-01T08:34:11;72.07;;;35.65;;
32864;SDS011;19219;44.500;11.188;2023-03-01T08:36:39;71.40;;;34.35;;
32864;SDS011;19219;44.500;11.188;2023-03-01T08:39:08;68.22;;;35.42;;
32864;SDS011;19219;44.500;11.188;2023-03-01T08:41:35;64.55;;;31.70;;
32864;SDS011;19219;44.500;11.188;2023-03-01T08:44:01;63.30;;;31.15;;
32864;SDS011;19219;44.500;11.188;2023-03-01T08:46:27;59.70;;;30.92;;
32864;SDS011;19219;44.500;11.188;2023-03-01T08:48:54;63.08;;;29.88;;
32864;SDS011;19219;44.500;11.188;2023-03-01T08:51:20;66.72;;;31.50;;
32864;SDS011;19219;44.500;11.188;2023-03-01T08:53:47;56.15;;;29.08;;
32864;SDS011;19219;44.500;11.188;2023-03-01T08:56:14;59.75;;;29.73;;
32864;SDS011;19219;44.500;11.188;2023-03-01T08:58:40;54.33;;;28.23;;
32864;SDS011;19219;44.500;11.188;2023-03-01T09:01:10;58.08;;;27.63;;
32864;SDS011;19219;44.500;11.188;2023-03-01T09:03:38;56.13;;;28.08;;
32864;SDS011;19219;44.500;11.188;2023-03-01T09:06:05;56.35;;;28.63;;
32864;SDS011;19219;44.500;11.188;2023-03-01T09:08:34;55.80;;;26.95;;
32864;SDS011;19219;44.500;11.188;2023-03-01T09:11:01;46.70;;;26.23;;
32864;SDS011;19219;44.500;11.188;2023-03-01T09:13:28;52.35;;;27.45;;
32864;SDS011;19219;44.500;11.188;2023-03-01T09:15:56;55.33;;;26.98;;
32864;SDS011;19219;44.500;11.188;2023-03-01T09:18:22;54.30;;;26.02;;
32864;SDS011;19219;44.500;11.188;2023-03-01T09:20:48;48.90;;;25.38;;
32864;SDS011;19219;44.500;11.188;2023-03-01T09:23:14;48.20;;;25.13;;
32864;SDS011;19219;44.500;11.188;2023-03-01T09:25:40;50.67;;;24.38;;
32864;SDS011;19219;44.500;11.188;2023-03-01T09:28:06;47.38;;;24.17;;
32864;SDS011;19219;44.500;11.188;2023-03-01T09:30:31;56.67;;;25.92;;
32864;SDS011;19219;44.500;11.188;2023-03-01T09:32:57;47.65;;;24.88;;
32864;SDS011;19219;44.500;11.188;2023-03-01T09:35:23;46.05;;;23.05;;
32864;SDS011;19219;44.500;11.188;2023-03-01T09:37:48;46.95;;;24.88;;
32864;SDS011;19219;44.500;11.188;2023-03-01T09:40:16;47.45;;;23.75;;
32864;SDS011;19219;44.500;11.188;2023-03-01T09:42:50;50.47;;;25.65;;
32864;SDS011;19219;44.500;11.188;2023-03-01T09:45:27;46.00;;;23.63;;
32864;SDS011;19219;44.500;11.188;2023-03-01T09:50:22;48.10;;;24.10;;
32864;SDS011;19219;44.500;11.188;2023-03-01T09:53:02;42.25;;;21.73;;
32864;SDS011;19219;44.500;11.188;2023-03-01T09:58:54;43.30;;;21.92;;
32864;SDS011;19219;44.500;11.188;2023-03-01T10:01:40;38.20;;;19.73;;
32864;SDS011;19219;44.500;11.188;2023-03-01T10:09:47;39.47;;;20.45;;
32864;SDS011;19219;44.500;11.188;2023-03-01T10:12:20;40.22;;;20.05;;
32864;SDS011;19219;44.500;11.188;2023-03-01T10:22:48;41.20;;;20.65;;
32864;SDS011;19219;44.500;11.188;2023-03-01T10:28:10;51.47;;;24.13;;
32864;SDS011;19219;44.500;11.188;2023-03-01T10:31:18;45.78;;;21.13;;
32864;SDS011;19219;44.500;11.188;2023-03-01T10:33:48;38.05;;;20.05;;
32864;SDS011;19219;44.500;11.188;2023-03-01T10:36:18;37.20;;;18.65;;
32864;SDS011;19219;44.500;11.188;2023-03-01T10:39:01;35.03;;;20.85;;
32864;SDS011;19219;44.500;11.188;2023-03-01T10:41:53;39.75;;;19.27;;
32864;SDS011;19219;44.500;11.188;2023-03-01T10:47:19;32.92;;;17.88;;
32864;SDS011;19219;44.500;11.188;2023-03-01T10:50:02;37.80;;;19.60;;
32864;SDS011;19219;44.500;11.188;2023-03-01T10:52:34;35.60;;;19.50;;
32864;SDS011;19219;44.500;11.188;2023-03-01T10:58:21;30.42;;;17.00;;
32864;SDS011;19219;44.500;11.188;2023-03-01T11:00:54;37.03;;;17.13;;
32864;SDS011;19219;44.500;11.188;2023-03-01T11:03:25;31.40;;;17.17;;
32864;SDS011;19219;44.500;11.188;2023-03-01T11:13:38;31.00;;;18.00;;
32864;SDS011;19219;44.500;11.188;2023-03-01T11:16:24;33.95;;;19.30;;
32864;SDS011;19219;44.500;11.188;2023-03-01T11:18:57;41.05;;;21.15;;
32864;SDS011;19219;44.500;11.188;2023-03-01T11:21:36;35.55;;;19.08;;
32864;SDS011;19219;44.500;11.188;2023-03-01T11:24:05;38.17;;;18.88;;
32864;SDS011;19219;44.500;11.188;2023-03-01T11:26:36;33.42;;;17.88;;
32864;SDS011;19219;44.500;11.188;2023-03-01T11:29:12;34.22;;;18.13;;
32864;SDS011;19219;44.500;11.188;2023-03-01T11:31:50;34.53;;;17.65;;
32864;SDS011;19219;44.500;11.188;2023-03-01T11:34:19;34.78;;;17.73;;
32864;SDS011;19219;44.500;11.188;2023-03-01T11:36:58;40.65;;;21.27;;
32864;SDS011;19219;44.500;11.188;2023-03-01T11:42:25;36.40;;;17.80;;
32864;SDS011;19219;44.500;11.188;2023-03-01T11:45:05;36.08;;;18.92;;
32864;SDS011;19219;44.500;11.188;2023-03-01T11:53:06;38.05;;;19.20;;
32864;SDS011;19219;44.500;11.188;2023-03-01T11:59:20;31.25;;;16.90;;
32864;SDS011;19219;44.500;11.188;2023-03-01T12:07:01;34.75;;;18.38;;
32864;SDS011;19219;44.500;11.188;2023-03-01T12:22:44;44.83;;;18.55;;
32864;SDS011;19219;44.500;11.188;2023-03-01T12:28:22;38.17;;;18.83;;
32864;SDS011;19219;44.500;11.188;2023-03-01T12:31:20;37.72;;;18.55;;
32864;SDS011;19219;44.500;11.188;2023-03-01T12:39:06;36.88;;;18.15;;
32864;SDS011;19219;44.500;11.188;2023-03-01T12:42:08;35.13;;;20.13;;
32864;SDS011;19219;44.500;11.188;2023-03-01T12:44:46;41.10;;;17.98;;
32864;SDS011;19219;44.500;11.188;2023-03-01T12:50:18;40.65;;;19.25;;
32864;SDS011;19219;44.500;11.188;2023-03-01T12:55:23;35.50;;;17.50;;
32864;SDS011;19219;44.500;11.188;2023-03-01T13:03:31;38.30;;;18.25;;
32864;SDS011;19219;44.500;11.188;2023-03-01T13:06:11;44.90;;;21.42;;
32864;SDS011;19219;44.500;11.188;2023-03-01T13:11:34;34.42;;;17.58;;
32864;SDS011;19219;44.500;11.188;2023-03-01T13:16:51;51.00;;;25.10;;
32864;SDS011;19219;44.500;11.188;2023-03-01T13:19:21;44.40;;;22.77;;
32864;SDS011;19219;44.500;11.188;2023-03-01T13:21:50;44.40;;;24.80;;
32864;SDS011;19219;44.500;11.188;2023-03-01T13:24:28;35.15;;;20.77;;
32864;SDS011;19219;44.500;11.188;2023-03-01T13:29:44;39.25;;;20.35;;
32864;SDS011;19219;44.500;11.188;2023-03-01T13:37:39;38.47;;;20.08;;
32864;SDS011;19219;44.500;11.188;2023-03-01T13:42:47;32.45;;;18.67;;
32864;SDS011;19219;44.500;11.188;2023-03-01T13:45:16;35.10;;;19.35;;
32864;SDS011;19219;44.500;11.188;2023-03-01T13:47:43;38.45;;;18.77;;
32864;SDS011;19219;44.500;11.188;2023-03-01T13:50:18;31.13;;;17.90;;
32864;SDS011;19219;44.500;11.188;2023-03-01T13:53:02;34.42;;;17.73;;
32864;SDS011;19219;44.500;11.188;2023-03-01T13:55:37;35.22;;;18.83;;
32864;SDS011;19219;44.500;11.188;2023-03-01T14:01:00;32.15;;;19.30;;
32864;SDS011;19219;44.500;11.188;2023-03-01T14:03:28;37.38;;;20.00;;
32864;SDS011;19219;44.500;11.188;2023-03-01T14:06:09;31.77;;;19.33;;
32864;SDS011;19219;44.500;11.188;2023-03-01T14:08:43;33.25;;;18.45;;
32864;SDS011;19219;44.500;11.188;2023-03-01T14:16:17;33.38;;;19.15;;
32864;SDS011;19219;44.500;11.188;2023-03-01T14:21:49;34.33;;;18.33;;
32864;SDS011;19219;44.500;11.188;2023-03-01T14:24:46;37.30;;;20.48;;
32864;SDS011;19219;44.500;11.188;2023-03-01T14:27:14;37.10;;;21.50;;
32864;SDS011;19219;44.500;11.188;2023-03-01T14:29:41;32.08;;;18.58;;
32864;SDS011;19219;44.500;11.188;2023-03-01T14:34:46;31.92;;;18.42;;
32864;SDS011;19219;44.500;11.188;2023-03-01T14:37:33;39.35;;;19.73;;
32864;SDS011;19219;44.500;11.188;2023-03-01T14:40:00;43.40;;;21.65;;
32864;SDS011;19219;44.500;11.188;2023-03-01T14:42:30;39.88;;;20.17;;
32864;SDS011;19219;44.500;11.188;2023-03-01T14:45:00;39.22;;;20.38;;
32864;SDS011;19219;44.500;11.188;2023-03-01T14:47:28;41.00;;;24.30;;
32864;SDS011;19219;44.500;11.188;2023-03-01T14:50:03;49.72;;;30.67;;
32864;SDS011;19219;44.500;11.188;2023-03-01T14:52:41;45.08;;;26.45;;
32864;SDS011;19219;44.500;11.188;2023-03-01T14:55:20;32.72;;;20.10;;
32864;SDS011;19219;44.500;11.188;2023-03-01T14:57:51;36.83;;;19.33;;
32864;SDS011;19219;44.500;11.188;2023-03-01T15:02:54;39.47;;;20.70;;
32864;SDS011;19219;44.500;11.188;2023-03-01T15:05:31;39.70;;;20.70;;
32864;SDS011;19219;44.500;11.188;2023-03-01T15:07:58;33.17;;;19.63;;
32864;SDS011;19219;44.500;11.188;2023-03-01T15:10:28;34.75;;;19.65;;
32864;SDS011;19219;44.500;11.188;2023-03-01T15:12:55;28.13;;;18.08;;
32864;SDS011;19219;44.500;11.188;2023-03-01T15:15:31;33.63;;;20.02;;
32864;SDS011;19219;44.500;11.188;2023-03-01T15:17:58;40.40;;;22.70;;
32864;SDS011;19219;44.500;11.188;2023-03-01T15:20:27;34.60;;;18.83;;
32864;SDS011;19219;44.500;11.188;2023-03-01T15:22:55;40.75;;;25.20;;
32864;SDS011;19219;44.500;11.188;2023-03-01T15:25:23;38.97;;;20.70;;
32864;SDS011;19219;44.500;11.188;2023-03-01T15:27:54;39.97;;;23.00;;
32864;SDS011;19219;44.500;11.188;2023-03-01T15:30:26;39.88;;;21.90;;
32864;SDS011;19219;44.500;11.188;2023-03-01T15:35:58;37.38;;;21.55;;
32864;SDS011;19219;44.500;11.188;2023-03-01T15:43:52;34.42;;;18.95;;
32864;SDS011;19219;44.500;11.188;2023-03-01T15:51:50;50.42;;;26.02;;
32864;SDS011;19219;44.500;11.188;2023-03-01T15:54:20;49.70;;;25.93;;
32864;SDS011;19219;44.500;11.188;2023-03-01T15:56:48;43.15;;;23.60;;
32864;SDS011;19219;44.500;11.188;2023-03-01T15:59:14;47.60;;;25.73;;
32864;SDS011;19219;44.500;11.188;2023-03-01T16:01:40;40.80;;;22.67;;
32864;SDS011;19219;44.500;11.188;2023-03-01T16:04:08;40.25;;;22.65;;
32864;SDS011;19219;44.500;11.188;2023-03-01T16:06:41;39.20;;;19.83;;
32864;SDS011;19219;44.500;11.188;2023-03-01T16:09:07;37.58;;;20.40;;
32864;SDS011;19219;44.500;11.188;2023-03-01T16:11:32;39.20;;;22.05;;
32864;SDS011;19219;44.500;11.188;2023-03-01T16:14:01;35.30;;;18.55;;
32864;SDS011;19219;44.500;11.188;2023-03-01T16:16:27;53.03;;;27.38;;
32864;SDS011;19219;44.500;11.188;2023-03-01T16:18:53;32.85;;;18.83;;
32864;SDS011;19219;44.500;11.188;2023-03-01T16:21:20;34.95;;;19.58;;
32864;SDS011;19219;44.500;11.188;2023-03-01T16:23:48;34.13;;;20.27;;
32864;SDS011;19219;44.500;11.188;2023-03-01T16:26:14;35.97;;;19.38;;
32864;SDS011;19219;44.500;11.188;2023-03-01T16:28:43;38.88;;;20.17;;
32864;SDS011;19219;44.500;11.188;2023-03-01T16:31:10;41.80;;;19.30;;
32864;SDS011;19219;44.500;11.188;2023-03-01T16:33:36;37.78;;;20.35;;
32864;SDS011;19219;44.500;11.188;2023-03-01T16:36:09;37.47;;;18.90;;
32864;SDS011;19219;44.500;11.188;2023-03-01T16:38:36;32.78;;;18.33;;
32864;SDS011;19219;44.500;11.188;2023-03-01T16:41:03;29.95;;;17.58;;
32864;SDS011;19219;44.500;11.188;2023-03-01T16:43:29;33.75;;;18.40;;